sensor_id;sensor_type;location;lat;lon;timestamp;temperature;humidity
52615;DHT22;38508;53.158;6.614;2023-02-01T00:01:29;6.90;99.90
52615;DHT22;38508;53.158;6.614;2023-02-01T00:03:55;7.00;99.90
52615;DHT22;38508;53.158;6.614;2023-02-01T00:06:20;7.00;99.90
52615;DHT22;38508;53.158;6.614;2023-02-01T00:08:46;7.00;99.90
52615;DHT22;38508;53.158;6.614;2023-02-01T00:11:12;7.00;99.90
52615;DHT22;38508;53.158;6.614;2023-02-01T00:13:40;7.10;99.90
52615;DHT22;38508;53.158;6.614;2023-02-01T00:16:11;7.00;99.90
52615;DHT22;38508;53.158;6.614;2023-02-01T00:18:44;7.10;99.90
52615;DHT22;38508;53.158;6.614;2023-02-01T00:21:11;7.00;99.90
52615;DHT22;38508;53.158;6.614;2023-02-01T00:23:37;7.10;99.90
52615;DHT22;38508;53.158;6.614;2023-02-01T00:26:06;7.10;99.90
52615;DHT22;38508;53.158;6.614;2023-02-01T00:28:33;7.10;99.90
52615;DHT22;38508;53.158;6.614;2023-02-01T00:31:03;7.10;99.90
52615;DHT22;38508;53.158;6.614;2023-02-01T00:33:30;7.10;99.90
52615;DHT22;38508;53.158;6.614;2023-02-01T00:35:57;7.10;99.90
52615;DHT22;38508;53.158;6.614;2023-02-01T00:38:25;7.10;99.90
52615;DHT22;38508;53.158;6.614;2023-02-01T00:40:50;7.10;99.90
52615;DHT22;38508;53.158;6.614;2023-02-01T00:43:16;7.20;99.90
52615;DHT22;38508;53.158;6.614;2023-02-01T00:45:42;7.10;99.90
52615;DHT22;38508;53.158;6.614;2023-02-01T00:48:07;7.10;99.90
52615;DHT22;38508;53.158;6.614;2023-02-01T00:50:33;7.10;99.90
52615;DHT22;38508;53.158;6.614;2023-02-01T00:52:59;7.10;99.90
52615;DHT22;38508;53.158;6.614;2023-02-01T00:55:25;7.10;99.90
52615;DHT22;38508;53.158;6.614;2023-02-01T00:57:50;7.10;99.90
52615;DHT22;38508;53.158;6.614;2023-02-01T01:00:16;7.10;99.90
52615;DHT22;38508;53.158;6.614;2023-02-01T01:02:42;7.10;99.90
52615;DHT22;38508;53.158;6.614;2023-02-01T01:05:08;7.10;99.90
52615;DHT22;38508;53.158;6.614;2023-02-01T01:07:34;7.10;99.90
52615;DHT22;38508;53.158;6.614;2023-02-01T01:09:59;7.20;99.90
52615;DHT22;38508;53.158;6.614;2023-02-01T01:12:25;7.20;99.90
52615;DHT22;38508;53.158;6.614;2023-02-01T01:14:51;7.20;99.90
52615;DHT22;38508;53.158;6.614;2023-02-01T01:17:17;7.20;99.90
52615;DHT22;38508;53.158;6.614;2023-02-01T01:19:42;7.20;99.90
52615;DHT22;38508;53.158;6.614;2023-02-01T01:22:08;7.20;99.90
52615;DHT22;38508;53.158;6.614;2023-02-01T01:24:34;7.20;99.90
52615;DHT22;38508;53.158;6.614;2023-02-01T01:26:59;7.10;99.90
52615;DHT22;38508;53.158;6.614;2023-02-01T01:29:25;7.10;99.90
52615;DHT22;38508;53.158;6.614;2023-02-01T01:31:51;7.10;99.90
52615;DHT22;38508;53.158;6.614;2023-02-01T01:34:16;7.10;99.90
52615;DHT22;38508;53.158;6.614;2023-02-01T01:36:42;7.20;99.90
52615;DHT22;38508;53.158;6.614;2023-02-01T01:39:08;7.20;99.90
52615;DHT22;38508;53.158;6.614;2023-02-01T01:41:33;7.10;99.90
52615;DHT22;38508;53.158;6.614;2023-02-01T01:44:03;7.20;99.90
52615;DHT22;38508;53.158;6.614;2023-02-01T01:46:30;7.20;99.90
52615;DHT22;38508;53.158;6.614;2023-02-01T01:51:51;7.20;99.90
52615;DHT22;38508;53.158;6.614;2023-02-01T01:54:28;7.20;99.90
52615;DHT22;38508;53.158;6.614;2023-02-01T01:57:00;7.20;99.90
52615;DHT22;38508;53.158;6.614;2023-02-01T01:59:27;7.20;99.90
52615;DHT22;38508;53.158;6.614;2023-02-01T02:01:54;7.10;99.90
52615;DHT22;38508;53.158;6.614;2023-02-01T02:04:21;7.00;99.90
52615;DHT22;38508;53.158;6.614;2023-02-01T02:07:08;6.90;99.90
52615;DHT22;38508;53.158;6.614;2023-02-01T02:09:35;7.00;99.90
52615;DHT22;38508;53.158;6.614;2023-02-01T02:12:01;6.90;99.90
52615;DHT22;38508;53.158;6.614;2023-02-01T02:14:26;6.80;99.90
52615;DHT22;38508;53.158;6.614;2023-02-01T02:16:56;6.80;99.90
52615;DHT22;38508;53.158;6.614;2023-02-01T02:28:17;6.70;99.90
52615;DHT22;38508;53.158;6.614;2023-02-01T02:31:14;6.70;99.90
52615;DHT22;38508;53.158;6.614;2023-02-01T02:39:34;6.60;99.90
52615;DHT22;38508;53.158;6.614;2023-02-01T02:42:27;6.50;99.90
52615;DHT22;38508;53.158;6.614;2023-02-01T02:45:50;6.60;99.90
52615;DHT22;38508;53.158;6.614;2023-02-01T02:48:47;6.60;99.90
52615;DHT22;38508;53.158;6.614;2023-02-01T02:51:25;6.50;99.90
52615;DHT22;38508;53.158;6.614;2023-02-01T02:54:15;6.60;99.90
52615;DHT22;38508;53.158;6.614;2023-02-01T02:57:04;6.60;99.90
52615;DHT22;38508;53.158;6.614;2023-02-01T02:59:50;6.70;99.90
52615;DHT22;38508;53.158;6.614;2023-02-01T03:02:35;6.70;99.90
52615;DHT22;38508;53.158;6.614;2023-02-01T03:05:21;6.70;99.90
52615;DHT22;38508;53.158;6.614;2023-02-01T03:08:10;6.70;99.90
52615;DHT22;38508;53.158;6.614;2023-02-01T03:16:22;6.80;99.90
52615;DHT22;38508;53.158;6.614;2023-02-01T03:21:41;6.80;99.90
52615;DHT22;38508;53.158;6.614;2023-02-01T03:24:14;6.80;99.90
52615;DHT22;38508;53.158;6.614;2023-02-01T03:26:51;6.90;99.90
52615;DHT22;38508;53.158;6.614;2023-02-01T03:29:23;6.90;99.90
52615;DHT22;38508;53.158;6.614;2023-02-01T03:31:50;6.90;99.90
52615;DHT22;38508;53.158;6.614;2023-02-01T03:34:17;7.00;99.90
52615;DHT22;38508;53.158;6.614;2023-02-01T03:36:50;6.90;99.90
52615;DHT22;38508;53.158;6.614;2023-02-01T03:39:39;7.00;99.90
52615;DHT22;38508;53.158;6.614;2023-02-01T03:42:35;7.00;99.90
52615;DHT22;38508;53.158;6.614;2023-02-01T03:45:06;7.00;99.90
52615;DHT22;38508;53.158;6.614;2023-02-01T03:47:37;7.00;99.90
52615;DHT22;38508;53.158;6.614;2023-02-01T03:50:07;7.00;99.90
52615;DHT22;38508;53.158;6.614;2023-02-01T03:52:44;7.00;99.90
52615;DHT22;38508;53.158;6.614;2023-02-01T03:55:13;6.90;99.90
52615;DHT22;38508;53.158;6.614;2023-02-01T03:57:44;6.90;99.90
52615;DHT22;38508;53.158;6.614;2023-02-01T04:02:40;6.80;99.90
52615;DHT22;38508;53.158;6.614;2023-02-01T04:05:06;6.80;99.90
52615;DHT22;38508;53.158;6.614;2023-02-01T04:07:32;6.80;99.90
52615;DHT22;38508;53.158;6.614;2023-02-01T04:09:57;6.80;99.90
52615;DHT22;38508;53.158;6.614;2023-02-01T04:12:23;6.80;99.90
52615;DHT22;38508;53.158;6.614;2023-02-01T04:14:49;6.80;99.90
52615;DHT22;38508;53.158;6.614;2023-02-01T04:17:14;6.80;99.90
52615;DHT22;38508;53.158;6.614;2023-02-01T04:19:40;6.80;99.90
52615;DHT22;38508;53.158;6.614;2023-02-01T04:22:06;6.90;99.90
52615;DHT22;38508;53.158;6.614;2023-02-01T04:24:31;6.80;99.90
52615;DHT22;38508;53.158;6.614;2023-02-01T04:26:57;6.80;99.90
52615;DHT22;38508;53.158;6.614;2023-02-01T04:29:23;6.90;99.90
52615;DHT22;38508;53.158;6.614;2023-02-01T04:31:48;6.90;99.90
52615;DHT22;38508;53.158;6.614;2023-02-01T04:34:15;7.00;99.90
52615;DHT22;38508;53.158;6.614;2023-02-01T04:36:41;6.90;99.90
52615;DHT22;38508;53.158;6.614;2023-02-01T04:39:08;6.90;99.90
52615;DHT22;38508;53.158;6.614;2023-02-01T04:41:34;7.00;99.90
52615;DHT22;38508;53.158;6.614;2023-02-01T04:44:00;7.00;99.90
52615;DHT22;38508;53.158;6.614;2023-02-01T04:46:25;6.90;99.90
52615;DHT22;38508;53.158;6.614;2023-02-01T04:48:51;7.00;99.90
52615;DHT22;38508;53.158;6.614;2023-02-01T04:51:17;7.00;99.90
52615;DHT22;38508;53.158;6.614;2023-02-01T04:53:44;7.00;99.90
52615;DHT22;38508;53.158;6.614;2023-02-01T04:56:09;7.00;99.90
52615;DHT22;38508;53.158;6.614;2023-02-01T04:58:35;7.00;99.90
52615;DHT22;38508;53.158;6.614;2023-02-01T05:01:05;7.00;99.90
52615;DHT22;38508;53.158;6.614;2023-02-01T05:03:32;7.00;99.90
52615;DHT22;38508;53.158;6.614;2023-02-01T05:05:59;7.00;99.90
52615;DHT22;38508;53.158;6.614;2023-02-01T05:08:25;7.00;99.90
52615;DHT22;38508;53.158;6.614;2023-02-01T05:10:52;7.00;99.90
52615;DHT22;38508;53.158;6.614;2023-02-01T05:13:18;7.00;99.90
52615;DHT22;38508;53.158;6.614;2023-02-01T05:16:03;7.00;99.90
52615;DHT22;38508;53.158;6.614;2023-02-01T05:18:29;6.90;99.90
52615;DHT22;38508;53.158;6.614;2023-02-01T05:20:55;6.90;99.90
52615;DHT22;38508;53.158;6.614;2023-02-01T05:23:21;6.90;99.90
52615;DHT22;38508;53.158;6.614;2023-02-01T05:25:46;6.90;99.90
52615;DHT22;38508;53.158;6.614;2023-02-01T05:28:12;6.90;99.90
52615;DHT22;38508;53.158;6.614;2023-02-01T05:30:38;6.90;99.90
52615;DHT22;38508;53.158;6.614;2023-02-01T05:33:04;6.90;99.90
52615;DHT22;38508;53.158;6.614;2023-02-01T05:35:30;6.90;99.90
52615;DHT22;38508;53.158;6.614;2023-02-01T05:37:56;6.90;99.90
52615;DHT22;38508;53.158;6.614;2023-02-01T05:40:21;7.00;99.90
52615;DHT22;38508;53.158;6.614;2023-02-01T05:42:47;7.00;99.90
52615;DHT22;38508;53.158;6.614;2023-02-01T05:45:13;7.00;99.90
52615;DHT22;38508;53.158;6.614;2023-02-01T05:47:39;7.10;99.90
52615;DHT22;38508;53.158;6.614;2023-02-01T05:50:05;7.10;99.90
52615;DHT22;38508;53.158;6.614;2023-02-01T05:52:31;7.10;99.90
52615;DHT22;38508;53.158;6.614;2023-02-01T05:54:57;7.10;99.90
52615;DHT22;38508;53.158;6.614;2023-02-01T05:57:23;7.20;99.90
52615;DHT22;38508;53.158;6.614;2023-02-01T05:59:49;7.30;99.90
52615;DHT22;38508;53.158;6.614;2023-02-01T06:02:15;7.30;99.90
52615;DHT22;38508;53.158;6.614;2023-02-01T06:04:41;7.30;99.90
52615;DHT22;38508;53.158;6.614;2023-02-01T06:07:08;7.30;99.90
52615;DHT22;38508;53.158;6.614;2023-02-01T06:09:36;7.20;99.90
52615;DHT22;38508;53.158;6.614;2023-02-01T06:12:03;7.20;99.90
52615;DHT22;38508;53.158;6.614;2023-02-01T06:14:28;7.20;99.90
52615;DHT22;38508;53.158;6.614;2023-02-01T06:16:55;7.20;99.90
52615;DHT22;38508;53.158;6.614;2023-02-01T06:19:21;7.20;99.90
52615;DHT22;38508;53.158;6.614;2023-02-01T06:21:47;7.20;99.90
52615;DHT22;38508;53.158;6.614;2023-02-01T06:24:13;7.20;99.90
52615;DHT22;38508;53.158;6.614;2023-02-01T06:26:39;7.20;99.90
52615;DHT22;38508;53.158;6.614;2023-02-01T06:29:09;7.20;99.90
52615;DHT22;38508;53.158;6.614;2023-02-01T06:31:37;7.10;99.90
52615;DHT22;38508;53.158;6.614;2023-02-01T06:34:02;7.10;99.90
52615;DHT22;38508;53.158;6.614;2023-02-01T06:36:28;7.10;99.90
52615;DHT22;38508;53.158;6.614;2023-02-01T06:38:55;7.10;99.90
52615;DHT22;38508;53.158;6.614;2023-02-01T06:41:25;7.10;99.90
52615;DHT22;38508;53.158;6.614;2023-02-01T06:43:51;7.10;99.90
52615;DHT22;38508;53.158;6.614;2023-02-01T06:46:17;7.10;99.90
52615;DHT22;38508;53.158;6.614;2023-02-01T06:48:43;7.10;99.90
52615;DHT22;38508;53.158;6.614;2023-02-01T06:51:20;7.10;99.90
52615;DHT22;38508;53.158;6.614;2023-02-01T06:53:46;7.10;99.90
52615;DHT22;38508;53.158;6.614;2023-02-01T06:56:11;7.10;99.90
52615;DHT22;38508;53.158;6.614;2023-02-01T06:58:37;7.10;99.90
52615;DHT22;38508;53.158;6.614;2023-02-01T07:01:06;7.10;99.90
52615;DHT22;38508;53.158;6.614;2023-02-01T07:03:32;7.10;99.90
52615;DHT22;38508;53.158;6.614;2023-02-01T07:05:58;7.10;99.90
52615;DHT22;38508;53.158;6.614;2023-02-01T07:08:25;7.20;99.90
52615;DHT22;38508;53.158;6.614;2023-02-01T07:10:51;7.20;99.90
52615;DHT22;38508;53.158;6.614;2023-02-01T07:13:17;7.30;99.90
52615;DHT22;38508;53.158;6.614;2023-02-01T07:15:43;7.20;99.90
52615;DHT22;38508;53.158;6.614;2023-02-01T07:18:08;7.30;99.90
52615;DHT22;38508;53.158;6.614;2023-02-01T07:20:34;7.30;99.90
52615;DHT22;38508;53.158;6.614;2023-02-01T07:23:00;7.30;99.90
52615;DHT22;38508;53.158;6.614;2023-02-01T07:25:25;7.20;99.90
52615;DHT22;38508;53.158;6.614;2023-02-01T07:27:51;7.20;99.90
52615;DHT22;38508;53.158;6.614;2023-02-01T07:30:17;7.20;99.90
52615;DHT22;38508;53.158;6.614;2023-02-01T07:32:43;7.30;99.90
52615;DHT22;38508;53.158;6.614;2023-02-01T07:35:08;7.30;99.90
52615;DHT22;38508;53.158;6.614;2023-02-01T07:37:34;7.40;99.90
52615;DHT22;38508;53.158;6.614;2023-02-01T07:40:00;7.30;99.90
52615;DHT22;38508;53.158;6.614;2023-02-01T07:42:25;7.20;99.90
52615;DHT22;38508;53.158;6.614;2023-02-01T07:44:51;7.20;99.90
52615;DHT22;38508;53.158;6.614;2023-02-01T07:47:17;7.20;99.90
52615;DHT22;38508;53.158;6.614;2023-02-01T07:49:42;7.20;99.90
52615;DHT22;38508;53.158;6.614;2023-02-01T07:52:08;7.10;99.90
52615;DHT22;38508;53.158;6.614;2023-02-01T07:54:36;7.10;99.90
52615;DHT22;38508;53.158;6.614;2023-02-01T07:57:02;7.20;99.90
52615;DHT22;38508;53.158;6.614;2023-02-01T07:59:28;7.20;99.90
52615;DHT22;38508;53.158;6.614;2023-02-01T08:01:53;7.30;99.90
52615;DHT22;38508;53.158;6.614;2023-02-01T08:04:19;7.30;99.90
52615;DHT22;38508;53.158;6.614;2023-02-01T08:06:45;7.20;99.90
52615;DHT22;38508;53.158;6.614;2023-02-01T08:09:10;7.20;99.90
52615;DHT22;38508;53.158;6.614;2023-02-01T08:11:36;7.20;99.90
52615;DHT22;38508;53.158;6.614;2023-02-01T08:14:04;7.30;99.90
52615;DHT22;38508;53.158;6.614;2023-02-01T08:16:30;7.30;99.90
52615;DHT22;38508;53.158;6.614;2023-02-01T08:18:56;7.30;99.90
52615;DHT22;38508;53.158;6.614;2023-02-01T08:21:24;7.30;99.90
52615;DHT22;38508;53.158;6.614;2023-02-01T08:23:51;7.30;99.90
52615;DHT22;38508;53.158;6.614;2023-02-01T08:26:20;7.20;99.90
52615;DHT22;38508;53.158;6.614;2023-02-01T08:28:49;7.30;99.90
52615;DHT22;38508;53.158;6.614;2023-02-01T08:31:16;7.40;99.90
52615;DHT22;38508;53.158;6.614;2023-02-01T08:33:43;7.30;99.90
52615;DHT22;38508;53.158;6.614;2023-02-01T08:36:10;7.20;99.90
52615;DHT22;38508;53.158;6.614;2023-02-01T08:38:37;7.20;99.90
52615;DHT22;38508;53.158;6.614;2023-02-01T08:41:13;7.30;99.90
52615;DHT22;38508;53.158;6.614;2023-02-01T08:43:39;7.40;99.90
52615;DHT22;38508;53.158;6.614;2023-02-01T08:46:05;7.30;99.90
52615;DHT22;38508;53.158;6.614;2023-02-01T08:48:32;7.40;99.90
52615;DHT22;38508;53.158;6.614;2023-02-01T08:51:05;7.30;99.90
52615;DHT22;38508;53.158;6.614;2023-02-01T08:53:31;7.30;99.90
52615;DHT22;38508;53.158;6.614;2023-02-01T08:55:57;7.20;99.90
52615;DHT22;38508;53.158;6.614;2023-02-01T08:58:22;7.30;99.90
52615;DHT22;38508;53.158;6.614;2023-02-01T09:00:49;7.30;99.90
52615;DHT22;38508;53.158;6.614;2023-02-01T09:03:15;7.20;99.90
52615;DHT22;38508;53.158;6.614;2023-02-01T09:05:41;7.10;99.90
52615;DHT22;38508;53.158;6.614;2023-02-01T09:08:07;7.20;99.90
52615;DHT22;38508;53.158;6.614;2023-02-01T09:10:34;7.20;99.90
52615;DHT22;38508;53.158;6.614;2023-02-01T09:13:00;7.10;99.90
52615;DHT22;38508;53.158;6.614;2023-02-01T09:15:26;7.20;99.90
52615;DHT22;38508;53.158;6.614;2023-02-01T09:17:51;7.30;99.90
52615;DHT22;38508;53.158;6.614;2023-02-01T09:20:17;7.30;99.90
52615;DHT22;38508;53.158;6.614;2023-02-01T09:22:45;7.20;99.90
52615;DHT22;38508;53.158;6.614;2023-02-01T09:25:11;7.20;99.90
52615;DHT22;38508;53.158;6.614;2023-02-01T09:27:37;7.30;99.90
52615;DHT22;38508;53.158;6.614;2023-02-01T09:30:03;7.30;99.90
52615;DHT22;38508;53.158;6.614;2023-02-01T09:32:30;7.20;99.90
52615;DHT22;38508;53.158;6.614;2023-02-01T09:34:55;7.20;99.90
52615;DHT22;38508;53.158;6.614;2023-02-01T09:37:22;7.20;99.90
52615;DHT22;38508;53.158;6.614;2023-02-01T09:39:47;7.20;99.90
52615;DHT22;38508;53.158;6.614;2023-02-01T09:42:21;7.20;99.90
52615;DHT22;38508;53.158;6.614;2023-02-01T09:47:30;7.30;99.90
52615;DHT22;38508;53.158;6.614;2023-02-01T09:50:14;7.20;99.90
52615;DHT22;38508;53.158;6.614;2023-02-01T09:53:02;7.20;99.90
52615;DHT22;38508;53.158;6.614;2023-02-01T09:55:41;7.10;99.90
52615;DHT22;38508;53.158;6.614;2023-02-01T09:58:20;7.00;99.90
52615;DHT22;38508;53.158;6.614;2023-02-01T10:00:52;6.90;99.90
52615;DHT22;38508;53.158;6.614;2023-02-01T10:03:18;6.90;99.90
52615;DHT22;38508;53.158;6.614;2023-02-01T10:06:22;6.90;99.90
52615;DHT22;38508;53.158;6.614;2023-02-01T10:14:52;6.90;99.90
52615;DHT22;38508;53.158;6.614;2023-02-01T10:25:52;6.80;99.90
52615;DHT22;38508;53.158;6.614;2023-02-01T10:28:19;6.80;99.90
52615;DHT22;38508;53.158;6.614;2023-02-01T10:30:48;6.80;99.90
52615;DHT22;38508;53.158;6.614;2023-02-01T10:33:24;6.80;99.90
52615;DHT22;38508;53.158;6.614;2023-02-01T10:35:55;6.80;99.90
52615;DHT22;38508;53.158;6.614;2023-02-01T10:38:27;6.90;99.90
52615;DHT22;38508;53.158;6.614;2023-02-01T10:40:56;6.90;99.90
52615;DHT22;38508;53.158;6.614;2023-02-01T10:43:23;7.00;99.90
52615;DHT22;38508;53.158;6.614;2023-02-01T10:45:49;7.10;99.90
52615;DHT22;38508;53.158;6.614;2023-02-01T10:48:14;7.10;99.90
52615;DHT22;38508;53.158;6.614;2023-02-01T10:51:06;7.20;99.90
52615;DHT22;38508;53.158;6.614;2023-02-01T10:53:44;7.30;99.90
52615;DHT22;38508;53.158;6.614;2023-02-01T10:56:11;7.40;99.90
52615;DHT22;38508;53.158;6.614;2023-02-01T10:58:46;7.40;99.90
52615;DHT22;38508;53.158;6.614;2023-02-01T11:01:22;7.40;99.90
52615;DHT22;38508;53.158;6.614;2023-02-01T11:09:01;7.20;99.90
52615;DHT22;38508;53.158;6.614;2023-02-01T11:14:19;7.00;99.90
52615;DHT22;38508;53.158;6.614;2023-02-01T11:16:49;7.00;99.90
52615;DHT22;38508;53.158;6.614;2023-02-01T11:19:16;7.10;99.90
52615;DHT22;38508;53.158;6.614;2023-02-01T11:21:43;7.10;99.90
52615;DHT22;38508;53.158;6.614;2023-02-01T11:24:34;7.10;99.90
52615;DHT22;38508;53.158;6.614;2023-02-01T11:27:06;7.20;99.90
52615;DHT22;38508;53.158;6.614;2023-02-01T11:29:43;7.00;99.90
52615;DHT22;38508;53.158;6.614;2023-02-01T11:32:12;7.00;99.90
52615;DHT22;38508;53.158;6.614;2023-02-01T11:34:49;6.90;99.90
52615;DHT22;38508;53.158;6.614;2023-02-01T11:37:28;6.90;99.90
52615;DHT22;38508;53.158;6.614;2023-02-01T11:40:04;7.00;99.90
52615;DHT22;38508;53.158;6.614;2023-02-01T11:43:08;7.00;99.90
52615;DHT22;38508;53.158;6.614;2023-02-01T11:45:35;7.10;99.90
52615;DHT22;38508;53.158;6.614;2023-02-01T11:48:08;7.20;99.90
52615;DHT22;38508;53.158;6.614;2023-02-01T11:50:45;7.30;99.90
52615;DHT22;38508;53.158;6.614;2023-02-01T12:10:00;7.50;99.90
52615;DHT22;38508;53.158;6.614;2023-02-01T12:23:32;7.80;99.90
52615;DHT22;38508;53.158;6.614;2023-02-01T12:26:35;8.00;99.90
52615;DHT22;38508;53.158;6.614;2023-02-01T12:40:36;8.30;99.90
52615;DHT22;38508;53.158;6.614;2023-02-01T12:43:17;8.50;99.90
52615;DHT22;38508;53.158;6.614;2023-02-01T12:46:00;8.50;99.90
52615;DHT22;38508;53.158;6.614;2023-02-01T12:51:28;8.30;99.90
52615;DHT22;38508;53.158;6.614;2023-02-01T12:56:46;8.20;99.90
52615;DHT22;38508;53.158;6.614;2023-02-01T13:04:59;8.40;99.90
52615;DHT22;38508;53.158;6.614;2023-02-01T13:07:53;8.40;99.90
52615;DHT22;38508;53.158;6.614;2023-02-01T13:16:24;8.40;99.90
52615;DHT22;38508;53.158;6.614;2023-02-01T13:19:02;8.30;99.90
52615;DHT22;38508;53.158;6.614;2023-02-01T13:21:34;8.40;99.90
52615;DHT22;38508;53.158;6.614;2023-02-01T13:24:02;8.30;99.90
52615;DHT22;38508;53.158;6.614;2023-02-01T13:26:29;8.30;99.90
52615;DHT22;38508;53.158;6.614;2023-02-01T13:29:06;8.40;99.90
52615;DHT22;38508;53.158;6.614;2023-02-01T13:42:17;8.30;99.90
52615;DHT22;38508;53.158;6.614;2023-02-01T13:44:48;8.30;99.90
52615;DHT22;38508;53.158;6.614;2023-02-01T13:47:34;8.30;99.90
52615;DHT22;38508;53.158;6.614;2023-02-01T13:52:53;8.50;99.90
52615;DHT22;38508;53.158;6.614;2023-02-01T13:57:50;8.50;99.90
52615;DHT22;38508;53.158;6.614;2023-02-01T14:00:40;8.50;99.90
52615;DHT22;38508;53.158;6.614;2023-02-01T14:10:53;8.60;99.90
52615;DHT22;38508;53.158;6.614;2023-02-01T14:16:15;8.50;99.90
52615;DHT22;38508;53.158;6.614;2023-02-01T14:23:41;8.30;99.90
52615;DHT22;38508;53.158;6.614;2023-02-01T14:26:13;8.40;99.90
52615;DHT22;38508;53.158;6.614;2023-02-01T14:28:43;8.40;99.90
52615;DHT22;38508;53.158;6.614;2023-02-01T14:31:24;8.40;99.90
52615;DHT22;38508;53.158;6.614;2023-02-01T14:33:56;8.50;99.90
52615;DHT22;38508;53.158;6.614;2023-02-01T14:36:24;8.50;99.90
52615;DHT22;38508;53.158;6.614;2023-02-01T14:38:51;8.50;99.90
52615;DHT22;38508;53.158;6.614;2023-02-01T14:41:32;8.50;99.90
52615;DHT22;38508;53.158;6.614;2023-02-01T14:49:58;8.50;99.90
52615;DHT22;38508;53.158;6.614;2023-02-01T14:52:38;8.50;99.90
52615;DHT22;38508;53.158;6.614;2023-02-01T14:55:21;8.50;99.90
52615;DHT22;38508;53.158;6.614;2023-02-01T14:57:52;8.40;99.90
52615;DHT22;38508;53.158;6.614;2023-02-01T15:00:26;8.40;99.90
52615;DHT22;38508;53.158;6.614;2023-02-01T15:02:54;8.40;99.90
52615;DHT22;38508;53.158;6.614;2023-02-01T15:05:31;8.40;99.90
52615;DHT22;38508;53.158;6.614;2023-02-01T15:08:19;8.30;99.90
52615;DHT22;38508;53.158;6.614;2023-02-01T15:10:48;8.30;99.90
52615;DHT22;38508;53.158;6.614;2023-02-01T15:13:28;8.30;99.90
52615;DHT22;38508;53.158;6.614;2023-02-01T15:18:26;8.30;99.90
52615;DHT22;38508;53.158;6.614;2023-02-01T15:21:00;8.20;99.90
52615;DHT22;38508;53.158;6.614;2023-02-01T15:23:27;8.30;99.90
52615;DHT22;38508;53.158;6.614;2023-02-01T15:25:53;8.30;99.90
52615;DHT22;38508;53.158;6.614;2023-02-01T15:28:20;8.30;99.90
52615;DHT22;38508;53.158;6.614;2023-02-01T15:30:57;8.30;99.90
52615;DHT22;38508;53.158;6.614;2023-02-01T15:33:24;8.40;99.90
52615;DHT22;38508;53.158;6.614;2023-02-01T15:36:07;8.30;99.90
52615;DHT22;38508;53.158;6.614;2023-02-01T15:38:41;8.30;99.90
52615;DHT22;38508;53.158;6.614;2023-02-01T15:41:08;8.30;99.90
52615;DHT22;38508;53.158;6.614;2023-02-01T15:43:47;8.20;99.90
52615;DHT22;38508;53.158;6.614;2023-02-01T15:46:17;8.20;99.90
52615;DHT22;38508;53.158;6.614;2023-02-01T15:48:46;8.20;99.90
52615;DHT22;38508;53.158;6.614;2023-02-01T15:51:18;8.10;99.90
52615;DHT22;38508;53.158;6.614;2023-02-01T15:53:47;8.10;99.90
52615;DHT22;38508;53.158;6.614;2023-02-01T15:56:22;8.10;99.90
52615;DHT22;38508;53.158;6.614;2023-02-01T15:58:52;8.00;99.90
52615;DHT22;38508;53.158;6.614;2023-02-01T16:01:18;8.00;99.90
52615;DHT22;38508;53.158;6.614;2023-02-01T16:03:45;8.00;99.90
52615;DHT22;38508;53.158;6.614;2023-02-01T16:11:30;7.90;99.90
52615;DHT22;38508;53.158;6.614;2023-02-01T16:14:00;7.90;99.90
52615;DHT22;38508;53.158;6.614;2023-02-01T16:16:29;7.80;99.90
52615;DHT22;38508;53.158;6.614;2023-02-01T16:18:55;7.80;99.90
52615;DHT22;38508;53.158;6.614;2023-02-01T16:21:20;7.80;99.90
52615;DHT22;38508;53.158;6.614;2023-02-01T16:23:50;7.70;99.90
52615;DHT22;38508;53.158;6.614;2023-02-01T16:26:17;7.70;99.90
52615;DHT22;38508;53.158;6.614;2023-02-01T16:28:43;7.70;99.90
52615;DHT22;38508;53.158;6.614;2023-02-01T16:31:14;7.70;99.90
52615;DHT22;38508;53.158;6.614;2023-02-01T16:33:50;7.70;99.90
52615;DHT22;38508;53.158;6.614;2023-02-01T16:36:17;7.60;99.90
52615;DHT22;38508;53.158;6.614;2023-02-01T16:38:43;7.60;99.90
52615;DHT22;38508;53.158;6.614;2023-02-01T16:41:12;7.60;99.90
52615;DHT22;38508;53.158;6.614;2023-02-01T16:43:39;7.60;99.90
52615;DHT22;38508;53.158;6.614;2023-02-01T16:46:04;7.60;99.90
52615;DHT22;38508;53.158;6.614;2023-02-01T16:48:33;7.60;99.90
52615;DHT22;38508;53.158;6.614;2023-02-01T16:51:07;7.60;99.90
52615;DHT22;38508;53.158;6.614;2023-02-01T16:53:34;7.50;99.90
52615;DHT22;38508;53.158;6.614;2023-02-01T16:55:59;7.50;99.90
52615;DHT22;38508;53.158;6.614;2023-02-01T16:58:26;7.50;99.90
52615;DHT22;38508;53.158;6.614;2023-02-01T17:00:52;7.60;99.90
52615;DHT22;38508;53.158;6.614;2023-02-01T17:03:20;7.50;99.90
52615;DHT22;38508;53.158;6.614;2023-02-01T17:05:56;7.50;99.90
52615;DHT22;38508;53.158;6.614;2023-02-01T17:08:33;7.40;99.90
52615;DHT22;38508;53.158;6.614;2023-02-01T17:11:00;7.40;99.90
52615;DHT22;38508;53.158;6.614;2023-02-01T17:13:25;7.50;99.90
52615;DHT22;38508;53.158;6.614;2023-02-01T17:16:03;7.50;99.90
52615;DHT22;38508;53.158;6.614;2023-02-01T17:18:32;7.50;99.90
52615;DHT22;38508;53.158;6.614;2023-02-01T17:21:00;7.60;99.90
52615;DHT22;38508;53.158;6.614;2023-02-01T17:23:27;7.60;99.90
52615;DHT22;38508;53.158;6.614;2023-02-01T17:25:53;7.60;99.90
52615;DHT22;38508;53.158;6.614;2023-02-01T17:28:19;7.60;99.90
52615;DHT22;38508;53.158;6.614;2023-02-01T17:30:45;7.60;99.90
52615;DHT22;38508;53.158;6.614;2023-02-01T17:33:20;7.60;99.90
52615;DHT22;38508;53.158;6.614;2023-02-01T17:35:46;7.50;99.90
52615;DHT22;38508;53.158;6.614;2023-02-01T17:38:13;7.50;99.90
52615;DHT22;38508;53.158;6.614;2023-02-01T17:40:39;7.50;99.90
52615;DHT22;38508;53.158;6.614;2023-02-01T17:43:05;7.40;99.90
52615;DHT22;38508;53.158;6.614;2023-02-01T17:45:37;7.40;99.90
52615;DHT22;38508;53.158;6.614;2023-02-01T17:48:06;7.30;99.90
52615;DHT22;38508;53.158;6.614;2023-02-01T17:50:35;7.30;99.90
52615;DHT22;38508;53.158;6.614;2023-02-01T17:53:01;7.40;99.90
52615;DHT22;38508;53.158;6.614;2023-02-01T17:55:28;7.40;99.90
52615;DHT22;38508;53.158;6.614;2023-02-01T17:57:53;7.40;99.90
52615;DHT22;38508;53.158;6.614;2023-02-01T18:00:20;7.30;99.90
52615;DHT22;38508;53.158;6.614;2023-02-01T18:02:46;7.40;99.90
52615;DHT22;38508;53.158;6.614;2023-02-01T18:05:39;7.40;99.90
52615;DHT22;38508;53.158;6.614;2023-02-01T18:08:06;7.30;99.90
52615;DHT22;38508;53.158;6.614;2023-02-01T18:10:33;7.30;99.90
52615;DHT22;38508;53.158;6.614;2023-02-01T18:13:00;7.20;99.90
52615;DHT22;38508;53.158;6.614;2023-02-01T18:15:25;7.30;99.90
52615;DHT22;38508;53.158;6.614;2023-02-01T18:17:52;7.40;99.90
52615;DHT22;38508;53.158;6.614;2023-02-01T18:20:20;7.30;99.90
52615;DHT22;38508;53.158;6.614;2023-02-01T18:22:47;7.30;99.90
52615;DHT22;38508;53.158;6.614;2023-02-01T18:25:24;7.40;99.90
52615;DHT22;38508;53.158;6.614;2023-02-01T18:27:53;7.40;99.90
52615;DHT22;38508;53.158;6.614;2023-02-01T18:30:30;7.40;99.90
52615;DHT22;38508;53.158;6.614;2023-02-01T18:32:56;7.40;99.90
52615;DHT22;38508;53.158;6.614;2023-02-01T18:35:24;7.40;99.90
52615;DHT22;38508;53.158;6.614;2023-02-01T18:37:51;7.40;99.90